Carthage, MO

8:28 PM CST en Diciembre 17, 2014 (GMT -0600)
Country Side Estates | Change Station
CLOSE
Current Station
Estación meteorológica personal
Location: Webb City, MO
Altura: 968 ft
Estaciones meteorológicas cercanas
Aviso en curso: Winter Weather Advisory

Alt 968 ft 37.16 °N, 94.48 °W | Updated 1 minute ago

Gránulos de hielo
Gránulos de hielo
32.4 ° F
Sensación térmica 28 ° F
N
4.7
Viento Variable Viento desde ESE

Hoy
Alta -- | Baja -- ° F
--% Posibilidad de precipitaciones
Ayer
Alta -- | Baja -- ° F
Precip. -- pul
7:25 AM 5:01 PM
Creciente menguante, 18% visible
Presión 30.25 pul
Visibilidad 4.0 Millas
Nubes Nubes dispersas 500 ft
Nublado 5500 ft
Vientos helados 28 ° F
Punto de rocío 32 ° F
Humedad 99%
Precipitaciones 0.25 pul
Espesor de la nieve No disponible.
UV 0 de una escala de 12
Polen 3.60 de una escala de 12
Calidad del aire No disponible.
Flu Activity No disponible.
METAR KJLN 180153Z 08006KT 4SM -RA BR SCT005 OVC055 00/M01 A3022 RMK AO2 UPE0055RAB0055 SLP241 P0011 I1001 T00001006

More Conditions Fewer Conditions

Presión 30.25 pul
Visibilidad 4.0 Millas
Nubes Nubes dispersas 500 ft
Nublado 5500 ft
Vientos helados 28 ° F
Punto de rocío 32 ° F
Humedad 99%
Precipitaciones 0.25 pul
Espesor de la nieve No disponible.
UV 0 de una escala de 12
Polen 3.60 de una escala de 12
Calidad del aire No disponible.
Flu Activity No disponible.
METAR KJLN 180153Z 08006KT 4SM -RA BR SCT005 OVC055 00/M01 A3022 RMK AO2 UPE0055RAB0055 SLP241 P0011 I1001 T00001006

More Conditions Fewer Conditions

10-Day Weather Forecast

Almanac

Astronomía

Dec. 17, 2014 Salida Puesta
Hora real
Crepúsculo civil
Crepúsculo náutico
Crepúsculo astronómico
Luna
Horas de luz
Horas de luz
Tomorrow will be .
, % of the Moon is Illuminated

Extremos de hoy

Máximos del estado Bajos del estado

Community

WunderPhotos

Upload Photos

1,778,859 ¡fotos cargadas!

WunderBlogs® & News

Nearby

Calidad del aire

  Calidad del aire Índice AQ Contaminante
Not available.

Grosos de nieve

Estación Profundido Altura

Actividad de terremotos

Ciudad Distance Mag. Tiempo y dato
Magnitud mínima muestra es 2,5.

Temperaturas de aguas costeras

Lugar Temperatura

Estaciones meteorológicas cercanas